CheckWX is a tool to help pilots better visualize weather data.  It is not intended as a substitute for an official pre-flight weather briefing.

04:15:16 UTC

KALO TAF
Waterloo Regional Airport
Waterloo, Iowa, USA
KALO 262334Z 2700/2724 VRB04KT P6SM SKC FM270900 12009KT P6SM VCSH BKN110 FM271300 12012G17KT 4SM -TSRA BR OVC020CB FM271800 16012G20KT 3SM -RA VCTS OVC015CB FM272100 22009KT P6SM BKN030

May-27@
00:00 UTC

May-27 @ 00:00 UTC

May-27@
09:00 UTC

May-27 @ 09:00 UTC

KALO 262334Z 2700/2724 VRB04KT P6SM SKC
Wind
  • Variable at 4 KTS
Cloud Levels
  • Clear skies

May-27@
09:00 UTC

May-27 @ 09:00 UTC

May-27@
13:00 UTC

May-27 @ 13:00 UTC

FM270900 12009KT P6SM VCSH BKN110

From

From Standard forecast or significant change

Wind
  • 120° at 9 KTS
Cloud Levels
  • Broken at 11,000' AGL

May-27@
13:00 UTC

May-27 @ 13:00 UTC

May-27@
18:00 UTC

May-27 @ 18:00 UTC

FM271300 12012G17KT 4SM -TSRA BR OVC020CB

From

From Standard forecast or significant change

Wind
  • 120° at 12 KTS
  • {Gusting to 17 KTS
Conditions
Light Thunderstorm, Light Rain, Mist
Cloud Levels
  • Overcast at 2,000' AGL

May-27@
18:00 UTC

May-27 @ 18:00 UTC

May-27@
21:00 UTC

May-27 @ 21:00 UTC

FM271800 16012G20KT 3SM -RA VCTS OVC015CB

From

From Standard forecast or significant change

Wind
  • 160° at 12 KTS
  • {Gusting to 20 KTS
Conditions
Light Rain, Area Thunderstorm
Cloud Levels
  • Overcast at 1,500' AGL

May-27@
21:00 UTC

May-27 @ 21:00 UTC

May-28@
00:00 UTC

May-28 @ 00:00 UTC

FM272100 22009KT P6SM BKN030

From

From Standard forecast or significant change

Wind
  • 220° at 9 KTS
Cloud Levels
  • Broken at 3,000' AGL